Time;durP1;ratioP1;P1;durP2;ratioP2;P2;SDS_P1;SDS_P2;PMS_P1;PMS_P2;Temp;Humidity;BMP_temperature;BMP_pressure;BME280_temperature;BME280_humidity;BME280_pressure;Samples;Min_cycle;Max_cycle;Signal;HPM_P1;HPM_P2
2023/01/31 00:00:53;;;;;;;21.85;3.47;;;4.30;99.90;;;;;;5009028;28;20068;-67
2023/01/31 00:03:18;;;;;;;23.05;3.08;;;4.30;99.90;;;;;;5004523;28;20068;-66
2023/01/31 00:05:44;;;;;;;21.77;3.05;;;4.30;99.90;;;;;;5008829;28;20909;-67
2023/01/31 00:08:11;;;;;;;27.33;3.50;;;4.30;99.90;;;;;;5003565;28;20030;-65
2023/01/31 00:10:36;;;;;;;26.42;3.30;;;4.40;99.90;;;;;;4996005;28;20030;-66
2023/01/31 00:13:02;;;;;;;17.63;3.08;;;4.30;99.90;;;;;;4998194;28;20041;-67
2023/01/31 00:15:28;;;;;;;17.85;2.88;;;4.40;99.90;;;;;;4995815;28;20472;-65
2023/01/31 00:17:54;;;;;;;18.48;3.30;;;4.40;99.90;;;;;;4991767;28;20076;-64
2023/01/31 00:20:20;;;;;;;22.23;2.70;;;4.40;99.90;;;;;;5004898;28;20022;-65
2023/01/31 00:22:45;;;;;;;15.23;3.85;;;4.30;99.90;;;;;;4995577;28;20116;-65
2023/01/31 00:25:11;;;;;;;14.98;3.20;;;4.30;99.90;;;;;;5002940;28;20022;-65
2023/01/31 00:27:36;;;;;;;21.52;3.42;;;4.30;99.90;;;;;;5002464;28;20437;-65
2023/01/31 00:30:02;;;;;;;17.45;2.72;;;4.30;99.90;;;;;;4997788;28;20109;-66
2023/01/31 00:32:28;;;;;;;12.40;2.78;;;4.30;99.90;;;;;;4991789;28;20069;-66
2023/01/31 00:34:54;;;;;;;29.55;5.63;;;4.30;99.90;;;;;;4997458;28;20029;-66
2023/01/31 00:37:20;;;;;;;100.50;26.70;;;4.30;99.90;;;;;;4980769;28;20040;-66
2023/01/31 00:39:45;;;;;;;91.40;28.15;;;4.30;99.90;;;;;;5006188;28;20419;-66
2023/01/31 00:42:11;;;;;;;26.00;6.57;;;4.40;99.90;;;;;;4997213;28;20026;-66
2023/01/31 00:44:37;;;;;;;105.93;26.42;;;4.40;99.90;;;;;;4998894;28;20109;-65
2023/01/31 00:47:03;;;;;;;63.85;15.65;;;4.40;99.90;;;;;;5003827;28;20030;-66
2023/01/31 00:49:28;;;;;;;41.88;9.52;;;4.40;99.90;;;;;;5012656;28;20033;-65
2023/01/31 00:51:54;;;;;;;53.00;14.10;;;4.40;99.90;;;;;;4993195;28;20128;-65
2023/01/31 00:54:19;;;;;;;27.83;10.45;;;4.40;99.90;;;;;;4992579;28;20062;-66
2023/01/31 00:56:45;;;;;;;29.30;7.93;;;4.40;99.90;;;;;;4994451;28;20026;-66
2023/01/31 00:59:11;;;;;;;23.42;5.70;;;4.40;99.90;;;;;;4994530;28;20036;-65
2023/01/31 01:01:37;;;;;;;27.55;6.38;;;4.40;99.90;;;;;;4992118;28;20113;-65
2023/01/31 01:04:03;;;;;;;22.50;5.22;;;4.40;99.90;;;;;;4997726;28;20407;-65
2023/01/31 01:06:29;;;;;;;22.60;5.85;;;4.40;99.90;;;;;;4986632;28;20026;-65
2023/01/31 01:08:58;;;;;;;21.40;5.03;;;4.40;99.90;;;;;;4999790;28;20025;-66
2023/01/31 01:11:31;;;;;;;15.63;3.38;;;4.40;99.90;;;;;;4997221;28;20022;-67
2023/01/31 01:13:58;;;;;;;18.53;3.80;;;4.40;99.90;;;;;;5000360;28;20037;-64
2023/01/31 01:16:27;;;;;;;12.68;2.80;;;4.40;99.90;;;;;;5005297;28;20062;-68
2023/01/31 01:18:56;;;;;;;14.85;2.78;;;4.30;99.90;;;;;;4994148;28;20036;-65
2023/01/31 01:21:25;;;;;;;30.80;3.15;;;4.30;99.90;;;;;;4999482;28;20138;-66
2023/01/31 01:23:51;;;;;;;31.80;4.07;;;4.30;99.90;;;;;;5006995;28;20135;-65
2023/01/31 01:26:21;;;;;;;19.08;2.92;;;4.20;99.90;;;;;;5009413;28;20101;-67
2023/01/31 01:28:47;;;;;;;20.02;2.78;;;4.20;99.90;;;;;;5003962;28;20027;-65
2023/01/31 01:31:17;;;;;;;26.13;3.47;;;4.20;99.90;;;;;;4999746;28;20041;-64
2023/01/31 01:33:43;;;;;;;34.03;4.07;;;4.20;99.90;;;;;;5012207;28;20033;-65
2023/01/31 01:36:12;;;;;;;18.80;3.47;;;4.10;99.90;;;;;;5012873;28;20030;-65
2023/01/31 01:38:39;;;;;;;16.40;3.13;;;4.10;99.90;;;;;;4989342;28;20077;-65
2023/01/31 01:41:05;;;;;;;28.98;4.30;;;4.10;99.90;;;;;;5004212;28;20034;-65
2023/01/31 01:43:43;;;;;;;17.55;3.50;;;4.10;99.90;;;;;;5004139;28;20038;-64
2023/01/31 01:46:12;;;;;;;27.17;3.53;;;4.10;99.90;;;;;;5000652;28;20030;-65
2023/01/31 01:48:38;;;;;;;15.82;2.60;;;4.10;99.90;;;;;;4991297;28;20037;-64
2023/01/31 01:51:06;;;;;;;17.60;3.65;;;4.00;99.90;;;;;;4978271;28;20038;-67
2023/01/31 01:53:33;;;;;;;26.65;3.45;;;4.10;99.90;;;;;;5003952;28;20030;-64
2023/01/31 01:56:25;;;;;;;19.38;3.20;;;4.10;99.90;;;;;;4999753;28;20036;-65
2023/01/31 01:59:05;;;;;;;20.42;3.40;;;4.10;99.90;;;;;;4998906;28;20101;-64
2023/01/31 02:01:34;;;;;;;32.85;5.75;;;4.00;99.90;;;;;;5001523;28;20450;-64
2023/01/31 02:04:01;;;;;;;26.17;3.30;;;4.00;99.90;;;;;;4999940;28;20056;-65
2023/01/31 02:06:27;;;;;;;15.75;3.83;;;4.00;99.90;;;;;;5008386;28;20053;-64
2023/01/31 02:08:53;;;;;;;24.48;3.05;;;4.10;99.90;;;;;;5006951;28;20033;-64
2023/01/31 02:11:25;;;;;;;15.10;3.47;;;4.10;99.90;;;;;;5006843;28;20034;-64
2023/01/31 02:13:59;;;;;;;20.40;2.80;;;4.10;99.90;;;;;;5001112;28;20026;-65
2023/01/31 02:16:25;;;;;;;;;;;4.10;99.90;;;;;;5001131;28;20022;-64
2023/01/31 02:18:51;;;;;;;13.07;2.60;;;4.10;99.90;;;;;;4999401;28;19914;-64
2023/01/31 02:21:22;;;;;;;9.93;2.75;;;4.00;99.90;;;;;;5002351;28;20145;-65
2023/01/31 02:24:15;;;;;;;24.70;2.58;;;4.00;99.90;;;;;;5003975;28;20037;-64
2023/01/31 02:26:57;;;;;;;24.45;2.78;;;3.90;99.90;;;;;;5007285;28;20030;-65
2023/01/31 02:29:57;;;;;;;18.20;3.25;;;3.90;99.90;;;;;;5003819;28;20468;-64
2023/01/31 02:32:53;;;;;;;22.55;3.15;;;3.90;99.90;;;;;;5001951;28;20037;-64
2023/01/31 02:35:37;;;;;;;19.10;2.70;;;3.90;99.90;;;;;;5004843;28;20105;-65
2023/01/31 02:38:20;;;;;;;11.90;2.55;;;3.90;99.90;;;;;;4978961;28;20538;-67
2023/01/31 02:40:55;;;;;;;13.07;2.67;;;3.90;99.90;;;;;;5004448;28;20088;-64
2023/01/31 02:46:43;;;;;;;15.65;2.55;;;3.90;99.90;;;;;;5000003;28;20068;-65
2023/01/31 02:49:34;;;;;;;19.70;3.03;;;3.90;99.90;;;;;;5003803;28;20025;-64
2023/01/31 02:52:17;;;;;;;19.55;3.00;;;3.90;99.90;;;;;;5000196;28;20034;-64
2023/01/31 02:57:42;;;;;;;16.90;3.20;;;3.80;99.90;;;;;;5005999;28;20084;-65
2023/01/31 03:00:09;;;;;;;20.60;2.53;;;3.70;99.90;;;;;;5003722;28;20026;-65
2023/01/31 03:02:34;;;;;;;18.55;2.50;;;3.70;99.90;;;;;;5003818;28;20029;-65
2023/01/31 03:05:00;;;;;;;14.15;2.20;;;3.70;99.90;;;;;;5009231;28;20502;-64
2023/01/31 03:07:32;;;;;;;22.42;3.55;;;3.70;99.90;;;;;;5008605;28;20018;-65
2023/01/31 03:10:25;;;;;;;15.57;2.45;;;3.60;99.90;;;;;;5003495;28;20030;-65
2023/01/31 03:13:19;;;;;;;17.42;2.63;;;3.50;99.90;;;;;;5006210;28;20041;-64
2023/01/31 03:19:12;;;;;;;16.20;2.80;;;3.50;99.90;;;;;;5004134;28;20521;-65
2023/01/31 03:21:48;;;;;;;17.05;2.95;;;3.50;99.90;;;;;;5008490;28;20025;-64
2023/01/31 03:24:17;;;;;;;18.25;4.07;;;3.50;99.90;;;;;;5008566;28;20032;-64
2023/01/31 03:26:43;;;;;;;18.10;2.60;;;3.50;99.90;;;;;;5009536;28;20029;-65
2023/01/31 03:29:13;;;;;;;19.63;3.20;;;3.50;99.90;;;;;;5006950;28;20072;-65
2023/01/31 03:31:49;;;;;;;13.75;3.15;;;3.50;99.90;;;;;;5006783;28;20036;-65
2023/01/31 03:34:16;;;;;;;14.05;2.70;;;3.50;99.90;;;;;;5005795;28;20030;-65
2023/01/31 03:36:54;;;;;;;15.10;2.85;;;3.50;99.90;;;;;;5011099;28;20036;-64
2023/01/31 03:39:45;;;;;;;17.70;3.35;;;3.40;99.90;;;;;;4990451;28;20408;-65
2023/01/31 03:42:17;;;;;;;16.95;2.58;;;3.30;99.90;;;;;;5007261;28;20322;-66
2023/01/31 03:45:01;;;;;;;18.20;3.50;;;3.20;99.90;;;;;;5000479;28;20028;-65
2023/01/31 03:47:50;;;;;;;22.38;3.58;;;3.10;99.90;;;;;;5005673;28;20484;-64
2023/01/31 03:50:24;;;;;;;19.90;2.88;;;3.10;99.90;;;;;;5004941;28;20046;-66
2023/01/31 03:53:19;;;;;;;14.65;3.80;;;3.00;99.90;;;;;;5008811;28;20030;-66
2023/01/31 03:55:56;;;;;;;20.05;3.70;;;3.00;99.90;;;;;;5007440;28;20498;-65
2023/01/31 03:58:28;;;;;;;14.15;3.17;;;3.10;99.90;;;;;;5011147;28;20033;-65
2023/01/31 04:00:56;;;;;;;15.85;3.08;;;3.20;99.90;;;;;;5000186;28;20141;-65
2023/01/31 04:03:24;;;;;;;21.25;3.17;;;3.20;99.90;;;;;;5001302;28;20523;-65
2023/01/31 04:05:50;;;;;;;20.95;4.15;;;3.20;99.90;;;;;;5007118;28;20030;-65
2023/01/31 04:08:16;;;;;;;15.27;3.35;;;3.20;99.90;;;;;;5004101;28;20026;-65
2023/01/31 04:10:42;;;;;;;14.90;3.10;;;3.20;99.90;;;;;;5000833;28;20038;-65
2023/01/31 04:13:07;;;;;;;27.63;4.18;;;3.20;99.90;;;;;;5009044;28;20041;-65
2023/01/31 04:15:33;;;;;;;10.20;2.28;;;3.20;99.90;;;;;;5014368;28;20048;-64
2023/01/31 04:17:58;;;;;;;18.77;2.75;;;3.20;99.90;;;;;;5007435;28;20030;-66
2023/01/31 04:20:24;;;;;;;15.93;3.30;;;3.20;99.90;;;;;;5006430;28;20042;-66
2023/01/31 04:22:50;;;;;;;18.88;2.78;;;3.20;99.90;;;;;;5005723;28;20500;-65
2023/01/31 04:25:16;;;;;;;21.05;3.30;;;3.30;99.90;;;;;;5006394;28;20108;-65
2023/01/31 04:27:41;;;;;;;14.32;2.50;;;3.30;99.90;;;;;;5004373;28;20434;-65
2023/01/31 04:30:08;;;;;;;21.40;3.45;;;3.30;99.90;;;;;;5004711;28;20033;-66
2023/01/31 04:32:33;;;;;;;10.48;3.05;;;3.20;99.90;;;;;;5005654;28;20423;-65
2023/01/31 04:34:59;;;;;;;18.13;2.40;;;3.20;99.90;;;;;;5006017;28;20087;-66
2023/01/31 04:37:25;;;;;;;13.32;2.88;;;3.00;99.90;;;;;;5003946;28;20092;-64
2023/01/31 04:39:50;;;;;;;19.80;4.30;;;2.90;99.90;;;;;;4989971;28;20053;-65
2023/01/31 04:42:16;;;;;;;21.45;2.58;;;2.80;99.90;;;;;;5008644;28;20480;-65
2023/01/31 04:44:41;;;;;;;13.52;2.20;;;2.60;99.90;;;;;;5008559;28;20112;-66
2023/01/31 04:47:07;;;;;;;11.60;2.28;;;2.50;99.90;;;;;;5008339;28;20117;-65
2023/01/31 04:49:32;;;;;;;20.08;3.15;;;2.40;99.90;;;;;;5004193;28;20038;-64
2023/01/31 04:51:58;;;;;;;20.17;2.67;;;2.20;99.90;;;;;;5003884;28;20040;-66
2023/01/31 04:54:23;;;;;;;19.13;2.65;;;2.10;99.90;;;;;;5004052;28;20030;-65
2023/01/31 04:56:49;;;;;;;16.88;2.28;;;2.10;99.90;;;;;;5007910;28;20072;-65
2023/01/31 04:59:15;;;;;;;10.65;2.55;;;2.10;99.90;;;;;;5003407;28;20033;-65
2023/01/31 05:01:41;;;;;;;26.33;2.97;;;2.10;99.90;;;;;;5005188;28;20659;-65
2023/01/31 05:04:07;;;;;;;19.83;2.90;;;2.10;99.90;;;;;;5011957;28;20068;-65
2023/01/31 05:06:32;;;;;;;17.17;3.50;;;2.10;99.90;;;;;;5007050;28;20038;-63
2023/01/31 05:09:00;;;;;;;14.30;2.85;;;2.10;99.90;;;;;;4997058;28;20022;-65
2023/01/31 05:11:26;;;;;;;21.52;3.13;;;2.10;99.90;;;;;;5004754;28;20022;-65
2023/01/31 05:13:52;;;;;;;16.63;2.72;;;2.00;99.90;;;;;;5008839;28;20033;-66
2023/01/31 05:16:18;;;;;;;13.40;3.22;;;1.90;99.90;;;;;;5000759;28;20037;-65
2023/01/31 05:18:43;;;;;;;14.63;2.72;;;1.90;99.90;;;;;;4999164;28;20136;-64
2023/01/31 05:21:09;;;;;;;15.93;3.45;;;1.90;99.90;;;;;;5004864;28;20645;-66
2023/01/31 05:23:35;;;;;;;22.67;2.58;;;1.80;99.90;;;;;;5001118;28;20440;-64
2023/01/31 05:26:00;;;;;;;28.27;3.10;;;1.80;99.90;;;;;;5001653;28;20442;-65
2023/01/31 05:28:26;;;;;;;14.40;2.50;;;1.80;99.90;;;;;;4999237;28;20045;-65
2023/01/31 05:30:52;;;;;;;17.08;3.17;;;1.80;99.90;;;;;;5005970;28;22400;-64
2023/01/31 05:33:21;;;;;;;25.05;4.25;;;1.80;99.90;;;;;;5004926;28;20034;-66
2023/01/31 05:35:48;;;;;;;13.88;2.65;;;1.80;99.90;;;;;;4999848;28;20080;-65
2023/01/31 05:38:14;;;;;;;17.40;3.70;;;1.70;99.90;;;;;;4986964;28;20500;-63
2023/01/31 05:40:39;;;;;;;18.95;3.33;;;1.70;99.90;;;;;;5007510;28;20108;-64
2023/01/31 05:43:05;;;;;;;18.63;2.80;;;1.60;99.90;;;;;;5005606;28;20476;-64
2023/01/31 05:45:31;;;;;;;23.55;3.55;;;1.60;99.90;;;;;;5009260;28;20037;-65
2023/01/31 05:47:57;;;;;;;19.02;3.53;;;1.60;99.90;;;;;;5000653;28;20026;-64
2023/01/31 05:50:22;;;;;;;7.35;3.35;;;1.60;99.90;;;;;;5005976;28;20084;-66
2023/01/31 05:52:53;;;;;;;29.63;5.50;;;1.70;99.90;;;;;;5007289;28;20033;-65
2023/01/31 05:55:19;;;;;;;27.00;4.55;;;1.80;99.90;;;;;;5007441;28;20038;-64
2023/01/31 05:57:45;;;;;;;20.88;4.30;;;1.90;99.90;;;;;;4998425;28;20492;-64
2023/01/31 06:00:13;;;;;;;21.52;3.63;;;2.00;99.90;;;;;;5003624;28;20068;-64
2023/01/31 06:02:39;;;;;;;14.23;3.63;;;2.00;99.90;;;;;;4999577;28;20108;-65
2023/01/31 06:05:05;;;;;;;28.33;3.63;;;2.10;99.90;;;;;;5006115;28;20641;-64
2023/01/31 06:07:30;;;;;;;18.45;3.97;;;2.20;99.90;;;;;;4999032;28;20032;-65
2023/01/31 06:09:56;;;;;;;126.43;42.30;;;2.30;99.90;;;;;;5009003;28;20022;-65
2023/01/31 06:12:21;;;;;;;53.72;16.88;;;2.40;99.90;;;;;;4999027;28;20041;-66
2023/01/31 06:14:48;;;;;;;54.40;20.13;;;2.50;99.90;;;;;;5000066;28;20026;-64
2023/01/31 06:17:13;;;;;;;82.57;29.70;;;2.50;99.90;;;;;;5003744;28;20061;-67
2023/01/31 06:19:39;;;;;;;88.28;29.73;;;2.60;99.90;;;;;;5004084;28;20069;-65
2023/01/31 06:22:04;;;;;;;56.40;20.02;;;2.60;99.90;;;;;;5005323;28;20041;-64
2023/01/31 06:24:30;;;;;;;46.33;19.98;;;2.70;99.90;;;;;;5005818;28;20105;-65
2023/01/31 06:26:56;;;;;;;27.58;7.97;;;2.70;99.90;;;;;;5000915;28;20092;-65
2023/01/31 06:29:21;;;;;;;21.55;4.57;;;2.70;99.90;;;;;;5005850;28;20041;-65
2023/01/31 06:31:47;;;;;;;23.48;3.60;;;2.70;99.90;;;;;;5006590;28;20034;-65
2023/01/31 06:34:13;;;;;;;21.90;4.30;;;2.70;99.90;;;;;;5008039;28;20041;-65
2023/01/31 06:36:38;;;;;;;17.95;4.05;;;2.60;99.90;;;;;;5006681;28;20285;-65
2023/01/31 06:39:04;;;;;;;25.20;4.03;;;2.50;99.90;;;;;;5001569;28;20503;-64
2023/01/31 06:41:30;;;;;;;16.92;5.05;;;2.50;99.90;;;;;;5010760;28;20053;-65
2023/01/31 06:43:56;;;;;;;27.00;4.82;;;2.50;99.90;;;;;;5012085;28;20106;-65
2023/01/31 06:46:21;;;;;;;12.13;4.18;;;2.50;99.90;;;;;;5004218;28;20026;-65
2023/01/31 06:48:47;;;;;;;20.23;3.67;;;2.60;99.90;;;;;;5009601;28;20075;-65
2023/01/31 06:51:14;;;;;;;16.45;3.75;;;2.60;99.90;;;;;;5010693;28;20088;-65
2023/01/31 06:53:39;;;;;;;18.23;4.18;;;2.70;99.90;;;;;;5014628;28;20052;-65
2023/01/31 06:56:06;;;;;;;19.90;4.88;;;2.70;99.90;;;;;;5010269;28;20991;-66
2023/01/31 06:58:32;;;;;;;18.25;5.32;;;2.80;99.90;;;;;;5010025;28;20055;-66
2023/01/31 07:01:10;;;;;;;19.05;4.43;;;2.80;99.90;;;;;;5011432;28;20037;-65
2023/01/31 07:03:36;;;;;;;26.33;5.95;;;2.80;99.90;;;;;;5007295;28;20100;-64
2023/01/31 07:06:03;;;;;;;17.48;5.05;;;2.80;99.90;;;;;;5007593;28;20026;-64
2023/01/31 07:08:30;;;;;;;19.38;5.40;;;2.80;99.90;;;;;;5003776;28;20153;-66
2023/01/31 07:10:56;;;;;;;13.30;4.18;;;2.80;99.90;;;;;;5008024;28;20053;-65
2023/01/31 07:13:21;;;;;;;18.08;4.63;;;2.80;99.90;;;;;;5008323;28;20555;-66
2023/01/31 07:15:47;;;;;;;19.13;4.15;;;2.90;99.90;;;;;;5001305;28;20044;-65
2023/01/31 07:18:13;;;;;;;21.05;4.60;;;2.90;99.90;;;;;;5005176;28;20037;-65
2023/01/31 07:20:39;;;;;;;15.88;4.50;;;2.90;99.90;;;;;;5007405;28;20034;-66
2023/01/31 07:23:05;;;;;;;21.00;5.82;;;2.90;99.90;;;;;;5007854;28;20038;-65
2023/01/31 07:25:32;;;;;;;57.92;19.63;;;2.90;99.90;;;;;;5008990;28;20026;-65
2023/01/31 07:27:59;;;;;;;25.88;10.60;;;3.00;99.90;;;;;;5007165;28;20041;-67
2023/01/31 07:30:25;;;;;;;92.82;30.77;;;3.10;99.90;;;;;;5017268;28;20117;-65
2023/01/31 07:32:50;;;;;;;106.88;35.67;;;3.10;99.90;;;;;;5008105;28;20030;-64
2023/01/31 07:35:16;;;;;;;45.20;12.38;;;3.20;99.90;;;;;;5009453;28;20057;-65
2023/01/31 07:37:42;;;;;;;22.35;6.70;;;3.20;99.90;;;;;;5003476;28;20083;-64
2023/01/31 07:40:09;;;;;;;23.85;8.57;;;3.20;99.90;;;;;;4971897;28;20054;-65
2023/01/31 07:42:35;;;;;;;13.05;5.05;;;3.20;99.90;;;;;;5009888;28;20030;-65
2023/01/31 07:45:01;;;;;;;17.30;5.38;;;3.30;99.90;;;;;;5006381;28;20045;-64
2023/01/31 07:47:26;;;;;;;22.95;7.32;;;3.30;99.90;;;;;;5006336;28;20107;-65
2023/01/31 07:49:52;;;;;;;23.17;7.90;;;3.30;99.90;;;;;;5016110;28;20112;-65
2023/01/31 07:52:17;;;;;;;13.70;5.25;;;3.40;99.90;;;;;;5008098;28;20073;-65
2023/01/31 07:54:43;;;;;;;21.42;7.07;;;3.40;99.90;;;;;;5010470;28;20390;-65
2023/01/31 07:57:08;;;;;;;32.08;9.00;;;3.40;99.90;;;;;;5004981;28;20136;-66
2023/01/31 07:59:34;;;;;;;22.35;6.35;;;3.50;99.90;;;;;;5005172;28;20026;-63
2023/01/31 08:04:44;;;;;;;17.65;5.13;;;3.60;99.90;;;;;;5006065;28;20040;-66
2023/01/31 08:07:09;;;;;;;28.77;8.30;;;3.70;99.90;;;;;;5006983;28;20022;-64
2023/01/31 08:09:35;;;;;;;13.38;4.50;;;3.70;99.90;;;;;;5010962;28;20144;-64
2023/01/31 08:12:01;;;;;;;19.80;4.25;;;3.70;99.90;;;;;;5008196;28;20509;-66
2023/01/31 08:14:27;;;;;;;14.43;3.90;;;3.80;99.90;;;;;;5008389;28;20026;-65
2023/01/31 08:16:54;;;;;;;16.10;3.72;;;3.80;99.90;;;;;;5017007;28;20021;-65
2023/01/31 08:19:20;;;;;;;24.90;5.60;;;3.90;99.90;;;;;;5004507;28;20033;-65
2023/01/31 08:21:46;;;;;;;14.07;3.55;;;4.00;99.90;;;;;;5004968;28;20044;-65
2023/01/31 08:24:12;;;;;;;18.52;3.78;;;4.10;99.90;;;;;;5017667;28;20485;-66
2023/01/31 08:26:37;;;;;;;12.30;4.30;;;4.20;99.90;;;;;;5007468;28;20076;-64
2023/01/31 08:29:03;;;;;;;9.52;3.72;;;4.20;99.90;;;;;;5008194;28;20072;-65
2023/01/31 08:31:29;;;;;;;12.23;3.97;;;4.30;99.90;;;;;;5005428;28;20021;-66
2023/01/31 08:33:56;;;;;;;18.67;4.13;;;4.40;99.90;;;;;;5002497;28;20445;-65
2023/01/31 08:36:31;;;;;;;19.08;3.60;;;4.50;99.90;;;;;;5005832;28;20542;-65
2023/01/31 08:38:57;;;;;;;21.13;3.67;;;4.50;99.90;;;;;;4990434;28;20504;-65
2023/01/31 08:41:25;;;;;;;20.45;6.43;;;4.50;99.90;;;;;;5007636;28;20038;-66
2023/01/31 08:43:51;;;;;;;15.48;5.05;;;4.60;99.90;;;;;;5007639;28;20030;-66
2023/01/31 08:46:17;;;;;;;96.22;38.33;;;4.60;99.90;;;;;;5005022;28;20030;-65
2023/01/31 08:48:43;;;;;;;41.25;17.98;;;4.60;99.90;;;;;;5006068;28;20117;-65
2023/01/31 08:51:10;;;;;;;44.05;15.38;;;4.60;99.90;;;;;;5000813;28;20113;-65
2023/01/31 08:53:38;;;;;;;84.45;33.20;;;4.60;99.90;;;;;;5005144;28;20655;-64
2023/01/31 08:56:05;;;;;;;40.70;13.75;;;4.60;99.90;;;;;;5008980;28;20040;-65
2023/01/31 08:58:32;;;;;;;46.80;14.43;;;4.60;99.90;;;;;;5007259;28;20044;-65
2023/01/31 09:01:24;;;;;;;37.95;10.32;;;4.60;99.90;;;;;;5007106;28;20129;-65
2023/01/31 09:03:55;;;;;;;40.80;11.80;;;4.80;99.90;;;;;;5002106;28;20825;-65
2023/01/31 09:06:22;;;;;;;27.25;10.48;;;4.80;99.90;;;;;;5009332;28;20473;-66
2023/01/31 09:08:47;;;;;;;20.25;6.03;;;4.80;99.90;;;;;;5003755;28;20058;-65
2023/01/31 09:11:17;;;;;;;16.20;5.25;;;4.80;99.90;;;;;;5006299;28;20064;-65
2023/01/31 09:13:50;;;;;;;14.15;3.92;;;4.80;99.90;;;;;;5011643;28;20030;-65
2023/01/31 09:16:16;;;;;;;15.15;4.10;;;4.80;99.90;;;;;;5005145;28;20068;-65
2023/01/31 09:18:42;;;;;;;21.45;4.35;;;4.80;99.90;;;;;;5004169;28;20034;-65
2023/01/31 09:21:12;;;;;;;14.10;3.65;;;4.70;99.90;;;;;;5008505;28;20562;-64
2023/01/31 09:23:38;;;;;;;19.52;3.63;;;4.80;99.90;;;;;;4998577;28;20025;-64
2023/01/31 09:26:04;;;;;;;26.02;6.03;;;4.90;99.90;;;;;;5005036;28;20092;-65
2023/01/31 09:28:31;;;;;;;29.83;7.32;;;4.90;99.90;;;;;;5005226;28;20045;-65
2023/01/31 09:31:03;;;;;;;19.48;5.07;;;5.00;99.90;;;;;;5006632;28;20114;-65
2023/01/31 09:33:31;;;;;;;20.90;7.07;;;5.00;99.90;;;;;;5010259;28;20038;-64
2023/01/31 09:35:59;;;;;;;28.50;9.20;;;5.10;99.90;;;;;;5008236;28;20030;-65
2023/01/31 09:38:25;;;;;;;33.85;10.77;;;5.20;99.90;;;;;;5005667;28;20585;-65
2023/01/31 09:40:52;;;;;;;30.90;8.48;;;5.20;99.90;;;;;;4988612;28;20053;-65
2023/01/31 09:43:21;;;;;;;30.08;8.73;;;5.20;99.90;;;;;;5007993;28;20121;-64
2023/01/31 09:45:48;;;;;;;16.13;4.82;;;5.20;99.90;;;;;;5001058;28;20436;-64
2023/01/31 09:48:19;;;;;;;18.63;7.05;;;5.20;99.90;;;;;;5000253;28;20030;-64
2023/01/31 09:50:54;;;;;;;17.38;4.50;;;5.20;99.90;;;;;;5012530;28;20037;-65
2023/01/31 09:53:28;;;;;;;15.60;4.78;;;5.30;99.90;;;;;;5005912;28;20121;-64
2023/01/31 09:56:05;;;;;;;26.17;7.63;;;5.30;99.90;;;;;;5002044;28;20121;-65
2023/01/31 09:58:42;;;;;;;25.02;7.20;;;5.30;99.90;;;;;;5002710;28;20041;-65
2023/01/31 10:01:14;;;;;;;13.88;4.22;;;5.30;99.90;;;;;;4999465;28;20026;-65
2023/01/31 10:03:57;;;;;;;20.75;5.78;;;5.30;99.90;;;;;;4996312;28;20021;-65
2023/01/31 10:06:34;;;;;;;25.10;6.75;;;5.20;99.90;;;;;;5005702;28;20056;-65
2023/01/31 10:09:14;;;;;;;21.70;10.40;;;5.20;99.90;;;;;;5005986;28;20026;-66
2023/01/31 10:11:47;;;;;;;42.65;16.40;;;5.20;99.90;;;;;;4989331;28;20100;-64
2023/01/31 10:14:35;;;;;;;48.42;16.65;;;5.20;99.90;;;;;;4996602;28;20663;-65
2023/01/31 10:17:21;;;;;;;27.92;6.80;;;5.20;99.90;;;;;;4994549;28;20070;-65
2023/01/31 10:19:58;;;;;;;22.52;6.05;;;5.20;99.90;;;;;;4997857;28;20448;-65
2023/01/31 10:22:33;;;;;;;17.88;7.97;;;5.30;99.90;;;;;;5001774;28;20633;-65
2023/01/31 10:25:19;;;;;;;21.17;5.18;;;5.30;99.90;;;;;;5001081;28;20030;-65
2023/01/31 10:27:54;;;;;;;21.42;4.18;;;5.20;99.90;;;;;;5005405;28;20045;-65
2023/01/31 10:30:24;;;;;;;18.63;5.32;;;5.30;99.90;;;;;;5007703;28;20056;-66
2023/01/31 10:33:01;;;;;;;25.55;7.20;;;5.20;99.90;;;;;;5000556;28;20018;-66
2023/01/31 10:35:35;;;;;;;33.05;9.18;;;5.30;99.90;;;;;;5003181;28;20100;-65
2023/01/31 10:38:11;;;;;;;28.20;8.52;;;5.30;99.90;;;;;;4996901;28;20061;-65
2023/01/31 10:40:40;;;;;;;21.33;4.47;;;5.30;99.90;;;;;;4987601;28;20041;-64
2023/01/31 10:43:19;;;;;;;20.73;6.75;;;5.40;99.90;;;;;;5001066;28;20042;-65
2023/01/31 10:45:44;;;;;;;30.30;8.52;;;5.40;99.90;;;;;;5001099;28;20026;-66
2023/01/31 10:48:16;;;;;;;21.63;6.47;;;5.40;99.90;;;;;;4992473;28;20393;-65
2023/01/31 10:50:57;;;;;;;28.00;7.78;;;5.50;99.90;;;;;;5002916;28;20021;-65
2023/01/31 10:53:41;;;;;;;80.25;23.65;;;5.50;99.90;;;;;;5007743;28;20065;-66
2023/01/31 10:56:11;;;;;;;45.10;14.32;;;5.50;99.90;;;;;;5019725;28;20083;-66
2023/01/31 10:58:37;;;;;;;53.25;20.75;;;5.50;99.90;;;;;;5009162;28;20033;-66
2023/01/31 11:01:10;;;;;;;22.17;6.07;;;5.50;99.90;;;;;;5008748;28;20048;-65
2023/01/31 11:03:37;;;;;;;23.98;4.80;;;5.50;99.90;;;;;;5008723;28;20026;-64
2023/01/31 11:06:04;;;;;;;21.13;7.05;;;5.50;99.90;;;;;;5011343;28;20029;-66
2023/01/31 11:08:50;;;;;;;44.00;10.50;;;5.50;99.90;;;;;;5012913;28;20496;-65
2023/01/31 11:11:21;;;;;;;22.08;5.13;;;5.50;99.90;;;;;;5011848;28;20029;-65
2023/01/31 11:13:59;;;;;;;24.90;6.00;;;5.60;99.90;;;;;;4998628;28;20053;-65
2023/01/31 11:16:30;;;;;;;42.53;11.75;;;5.60;99.90;;;;;;5003386;28;20029;-67
2023/01/31 11:18:58;;;;;;;20.98;6.35;;;5.60;99.90;;;;;;5002582;28;20038;-65
2023/01/31 11:21:30;;;;;;;32.40;8.80;;;5.60;99.90;;;;;;5001933;28;20061;-64
2023/01/31 11:24:05;;;;;;;19.75;4.15;;;5.60;99.90;;;;;;5001635;28;20112;-64
2023/01/31 11:26:37;;;;;;;17.50;5.22;;;5.60;99.90;;;;;;5000384;28;20026;-65
2023/01/31 11:29:44;;;;;;;18.73;4.53;;;5.70;99.90;;;;;;5001137;28;20113;-64
2023/01/31 11:32:20;;;;;;;16.83;4.35;;;5.70;99.90;;;;;;5002247;28;20062;-65
2023/01/31 11:34:54;;;;;;;18.58;5.53;;;5.70;99.90;;;;;;5007067;28;20125;-65
2023/01/31 11:37:20;;;;;;;26.25;8.18;;;5.70;99.90;;;;;;5006430;28;20080;-65
2023/01/31 11:40:00;;;;;;;27.90;5.75;;;5.70;99.90;;;;;;4986317;28;20038;-65
2023/01/31 11:42:26;;;;;;;38.78;9.35;;;5.80;99.90;;;;;;5000242;28;20035;-64
2023/01/31 11:45:17;;;;;;;17.65;6.70;;;5.90;99.90;;;;;;4999565;28;20026;-65
2023/01/31 11:47:47;;;;;;;18.63;4.03;;;5.90;99.90;;;;;;5005965;28;20101;-64
2023/01/31 11:50:31;;;;;;;19.05;4.78;;;6.10;99.90;;;;;;5007225;28;20057;-65
2023/01/31 11:53:03;;;;;;;17.42;5.18;;;6.20;99.90;;;;;;5008272;28;20037;-65
2023/01/31 11:55:39;;;;;;;29.15;6.43;;;6.20;99.90;;;;;;5004329;28;20931;-65
2023/01/31 11:58:15;;;;;;;26.15;4.63;;;6.30;99.90;;;;;;5002856;28;20492;-65
2023/01/31 12:00:59;;;;;;;15.20;3.88;;;6.20;99.90;;;;;;5001107;28;20026;-65
2023/01/31 12:03:25;;;;;;;13.20;3.25;;;6.20;99.90;;;;;;5003784;28;20045;-65
2023/01/31 12:06:03;;;;;;;13.82;3.78;;;6.20;99.90;;;;;;5009786;28;20390;-65
2023/01/31 12:08:34;;;;;;;15.13;3.47;;;6.20;99.90;;;;;;5008609;28;20028;-65
2023/01/31 12:11:04;;;;;;;14.25;4.50;;;6.10;99.90;;;;;;5004868;28;20034;-66
2023/01/31 12:13:29;;;;;;;16.33;3.72;;;6.10;99.90;;;;;;5004578;28;20038;-65
2023/01/31 12:16:02;;;;;;;19.08;4.57;;;6.10;99.90;;;;;;4999349;28;20621;-65
2023/01/31 12:18:47;;;;;;;18.02;4.43;;;6.10;99.90;;;;;;4999401;28;20029;-65
2023/01/31 12:21:22;;;;;;;17.55;4.63;;;6.10;99.90;;;;;;5005114;28;20034;-64
2023/01/31 12:23:53;;;;;;;16.27;4.53;;;6.10;99.90;;;;;;5004344;28;20049;-65
2023/01/31 12:26:33;;;;;;;15.02;6.28;;;6.10;99.90;;;;;;5005387;28;20018;-65
2023/01/31 12:29:16;;;;;;;18.27;5.78;;;6.10;99.90;;;;;;5014359;28;20101;-64
2023/01/31 12:32:01;;;;;;;35.20;8.70;;;6.00;99.90;;;;;;5002693;28;20033;-65
2023/01/31 12:34:32;;;;;;;;;;;6.00;99.90;;;;;;5012768;28;20788;-65
2023/01/31 12:37:10;;;;;;;18.70;4.55;;;6.20;99.90;;;;;;5003269;28;19940;-65
2023/01/31 12:39:43;;;;;;;10.38;3.33;;;6.20;99.90;;;;;;4973674;28;20512;-64
2023/01/31 12:42:46;;;;;;;20.77;4.93;;;6.20;99.90;;;;;;4988079;28;20404;-66
2023/01/31 12:45:43;;;;;;;13.38;3.70;;;6.20;99.90;;;;;;4989300;28;20032;-65
2023/01/31 12:48:33;;;;;;;11.70;3.08;;;6.10;99.90;;;;;;4973113;28;20034;-64
2023/01/31 12:51:07;;;;;;;10.93;3.35;;;6.10;99.90;;;;;;4972106;28;20053;-65
2023/01/31 12:54:01;;;;;;;10.05;2.95;;;6.20;99.90;;;;;;4983164;28;20042;-65
2023/01/31 12:56:37;;;;;;;15.87;3.07;;;6.20;99.90;;;;;;5000104;28;20153;-65
2023/01/31 12:59:39;;;;;;;11.65;3.40;;;6.30;99.90;;;;;;4991255;28;20037;-66
2023/01/31 13:02:11;;;;;;;13.30;2.80;;;6.30;99.90;;;;;;4989091;28;20030;-65
2023/01/31 13:04:52;;;;;;;13.10;2.92;;;6.40;99.90;;;;;;4981832;28;20500;-65
2023/01/31 13:07:29;;;;;;;11.68;3.50;;;6.40;99.90;;;;;;4989351;28;20473;-66
2023/01/31 13:09:59;;;;;;;11.10;2.65;;;6.50;99.90;;;;;;4992115;28;20026;-65
2023/01/31 13:12:30;;;;;;;18.38;4.88;;;6.50;99.90;;;;;;4998930;28;20381;-66
2023/01/31 13:15:31;;;;;;;5.88;2.88;;;6.50;99.90;;;;;;5000150;28;20463;-66